Time;durP1;ratioP1;P1;durP2;ratioP2;P2;SDS_P1;SDS_P2;PMS_P1;PMS_P2;Temp;Humidity;BMP_temperature;BMP_pressure;BME280_temperature;BME280_humidity;BME280_pressure;Samples;Min_cycle;Max_cycle;Signal;HPM_P1;HPM_P2
2023/02/01 00:01:08;;;;;;;54.35;49.97;;;;;;;0.83;100.00;101159.47;5054017;28;20052;-82
2023/02/01 00:06:23;;;;;;;54.00;49.65;;;;;;;0.45;100.00;101166.19;5053857;28;20045;-81
2023/02/01 00:08:52;;;;;;;52.47;48.03;;;;;;;0.35;100.00;101167.88;5053378;28;20045;-81
2023/02/01 00:11:23;;;;;;;55.55;51.13;;;;;;;0.45;100.00;101178.41;5051805;28;20049;-81
2023/02/01 00:13:54;;;;;;;55.90;51.30;;;;;;;0.32;100.00;101165.53;5053587;28;20044;-81
2023/02/01 00:16:27;;;;;;;57.20;52.63;;;;;;;0.36;100.00;101171.31;5053543;28;20053;-81
2023/02/01 00:19:16;;;;;;;54.55;49.88;;;;;;;0.95;100.00;101177.69;5050403;28;20070;-81
2023/02/01 00:21:45;;;;;;;54.95;50.53;;;;;;;0.48;100.00;101170.28;5052199;28;20083;-81
2023/02/01 00:24:14;;;;;;;53.25;48.97;;;;;;;0.59;100.00;101177.25;5053044;28;20048;-81
2023/02/01 00:26:48;;;;;;;54.50;49.78;;;;;;;0.58;100.00;101173.81;5053414;28;20049;-81
2023/02/01 00:29:21;;;;;;;55.53;51.17;;;;;;;0.62;100.00;101175.19;5053782;28;20129;-81
2023/02/01 00:31:53;;;;;;;60.33;55.65;;;;;;;0.52;100.00;101169.09;5052838;28;20469;-81
2023/02/01 00:34:31;;;;;;;;;;;;;;;0.56;100.00;101169.66;5053906;28;20040;-81
2023/02/01 00:37:00;;;;;;;59.70;54.95;;;;;;;0.57;100.00;101169.50;5053492;28;19928;-81
2023/02/01 00:39:28;;;;;;;53.15;48.95;;;;;;;0.60;100.00;101171.03;5052201;28;20045;-81
2023/02/01 00:41:55;;;;;;;54.15;49.83;;;;;;;0.47;100.00;101173.06;5052974;28;20119;-81
2023/02/01 00:44:26;;;;;;;55.35;50.88;;;;;;;0.37;100.00;101167.78;5052601;28;20049;-81
2023/02/01 00:46:53;;;;;;;55.40;50.93;;;;;;;0.29;100.00;101173.63;5052743;28;20048;-81
2023/02/01 00:49:21;;;;;;;58.80;54.33;;;;;;;0.40;100.00;101180.59;5052936;28;20037;-81
2023/02/01 00:51:58;;;;;;;57.55;53.13;;;;;;;0.38;100.00;101179.88;5053092;28;20045;-81
2023/02/01 00:54:26;;;;;;;55.20;50.80;;;;;;;0.39;100.00;101185.00;5051329;28;20076;-81
2023/02/01 00:56:55;;;;;;;56.97;52.15;;;;;;;0.40;100.00;101180.59;5052631;28;20044;-81
2023/02/01 01:02:30;;;;;;;55.70;51.35;;;;;;;0.35;100.00;101180.13;5049932;28;20057;-81
2023/02/01 01:05:14;;;;;;;56.80;52.45;;;;;;;0.34;100.00;101173.25;5049737;28;20041;-81
2023/02/01 01:07:42;;;;;;;57.47;52.80;;;;;;;0.30;100.00;101174.44;5052122;28;20054;-81
2023/02/01 01:10:14;;;;;;;57.30;52.67;;;;;;;0.31;100.00;101171.72;5052886;28;20115;-81
2023/02/01 01:12:45;;;;;;;58.95;54.03;;;;;;;0.35;100.00;101167.88;5049709;28;20110;-81
2023/02/01 01:17:57;;;;;;;59.30;54.65;;;;;;;0.29;100.00;101160.56;5052549;28;20072;-81
2023/02/01 01:20:30;;;;;;;59.47;55.03;;;;;;;0.33;100.00;101164.56;5052149;28;20115;-81
2023/02/01 01:22:58;;;;;;;89.45;67.30;;;;;;;0.36;100.00;101168.72;5052691;28;20461;-81
2023/02/01 01:25:26;;;;;;;63.35;58.30;;;;;;;0.32;100.00;101164.72;5052258;28;20057;-81
2023/02/01 01:27:57;;;;;;;65.03;59.28;;;;;;;0.24;100.00;101157.50;5050030;28;20407;-81
2023/02/01 01:30:25;;;;;;;75.90;64.07;;;;;;;0.19;100.00;101167.53;5050625;28;20099;-81
2023/02/01 01:32:53;;;;;;;60.30;55.08;;;;;;;0.12;100.00;101166.34;5053454;28;20497;-81
2023/02/01 01:35:23;;;;;;;205.98;94.78;;;;;;;0.11;100.00;101162.91;5052726;28;20049;-81
2023/02/01 01:37:56;;;;;;;65.25;58.25;;;;;;;0.03;100.00;101162.75;5053433;28;20040;-81
2023/02/01 01:40:26;;;;;;;77.05;60.15;;;;;;;-0.14;100.00;101161.50;5053086;28;20052;-81
2023/02/01 01:42:55;;;;;;;1071.25;505.05;;;;;;;-0.05;100.00;101158.13;5049972;28;20095;-81
2023/02/01 01:45:27;;;;;;;87.38;67.45;;;;;;;-0.26;100.00;101155.50;5052660;28;20060;-81
2023/02/01 01:47:56;;;;;;;74.13;64.68;;;;;;;-0.14;100.00;101156.28;5052761;28;20476;-81
2023/02/01 01:50:32;;;;;;;60.97;55.08;;;;;;;-0.17;100.00;101148.69;5052597;28;20044;-81
2023/02/01 01:53:06;;;;;;;60.13;54.72;;;;;;;-0.32;100.00;101152.56;5049819;28;20052;-81
2023/02/01 01:55:38;;;;;;;61.47;55.35;;;;;;;-0.34;100.00;101159.69;5053245;28;20106;-81
2023/02/01 01:58:15;;;;;;;59.75;54.55;;;;;;;-0.38;100.00;101153.06;5053049;28;20477;-81
2023/02/01 02:03:18;;;;;;;80.45;62.88;;;;;;;-0.50;100.00;101160.09;5072671;27;20398;-80
2023/02/01 02:06:13;;;;;;;59.47;53.47;;;;;;;-0.60;100.00;101154.78;5075345;28;20048;-80
2023/02/01 02:08:42;;;;;;;59.95;53.90;;;;;;;-0.66;100.00;101167.50;5062411;28;20052;-80
2023/02/01 02:11:17;;;;;;;58.10;52.72;;;;;;;-0.63;100.00;101162.03;5070768;28;20049;-80
2023/02/01 02:13:49;;;;;;;61.15;55.28;;;;;;;-0.74;100.00;101170.69;5064188;28;20106;-80
2023/02/01 02:16:33;;;;;;;66.63;60.15;;;;;;;-0.82;100.00;101166.06;5082942;28;20045;-80
2023/02/01 02:19:34;;;;;;;78.03;65.72;;;;;;;-0.90;100.00;101165.03;5070552;28;20045;-80
2023/02/01 02:22:33;;;;;;;98.65;68.60;;;;;;;-0.88;100.00;101171.78;5068218;28;20049;-80
2023/02/01 02:25:35;;;;;;;77.03;65.32;;;;;;;-0.77;100.00;101182.19;5076694;28;20048;-80
2023/02/01 02:28:37;;;;;;;61.38;55.72;;;;;;;-0.71;100.00;101165.25;5067420;28;20052;-80
2023/02/01 02:31:34;;;;;;;63.35;57.05;;;;;;;-0.82;100.00;101165.25;5073949;28;20044;-80
2023/02/01 02:34:14;;;;;;;64.95;58.03;;;;;;;-0.81;100.00;101162.53;5064214;28;20057;-80
2023/02/01 02:36:57;;;;;;;63.65;57.00;;;;;;;-0.92;100.00;101160.75;5058242;28;20091;-80
2023/02/01 02:39:37;;;;;;;63.20;56.47;;;;;;;-1.10;100.00;101156.97;5069536;28;20045;-80
2023/02/01 02:48:09;;;;;;;66.90;58.70;;;;;;;-1.26;100.00;101165.16;5071899;28;20102;-80
2023/02/01 03:04:56;;;;;;;63.40;57.22;;;;;;;-0.65;100.00;101175.19;5062844;28;20073;-80
2023/02/01 03:08:03;;;;;;;63.78;57.78;;;;;;;-0.67;100.00;101171.88;5074653;28;20516;-80
2023/02/01 03:10:41;;;;;;;57.33;52.28;;;;;;;-0.59;100.00;101166.03;5067058;28;20049;-80
2023/02/01 03:13:23;;;;;;;53.95;49.13;;;;;;;-0.63;100.00;101162.84;5067977;28;20044;-80
2023/02/01 03:15:58;;;;;;;56.80;51.90;;;;;;;-0.60;100.00;101164.41;5056420;28;20111;-80
2023/02/01 03:18:35;;;;;;;57.88;52.78;;;;;;;-0.60;100.00;101167.84;5055643;28;20106;-80
2023/02/01 03:21:09;;;;;;;53.75;49.15;;;;;;;-0.49;100.00;101167.78;5071217;28;20048;-80
2023/02/01 03:23:39;;;;;;;55.13;50.28;;;;;;;-0.36;100.00;101161.59;5065701;28;20040;-80
2023/02/01 03:26:14;;;;;;;54.58;49.88;;;;;;;-0.51;100.00;101174.09;5052513;28;20049;-80
2023/02/01 03:28:52;;;;;;;54.42;49.50;;;;;;;-0.46;100.00;101169.31;5060114;28;20063;-80
2023/02/01 03:31:26;;;;;;;53.10;48.88;;;;;;;-0.47;100.00;101178.13;5051241;28;20457;-81
2023/02/01 03:33:53;;;;;;;57.25;52.15;;;;;;;-0.40;100.00;101186.28;5048979;28;20048;-80
2023/02/01 03:36:27;;;;;;;53.90;48.92;;;;;;;-0.41;100.00;101189.84;5056949;28;20071;-80
2023/02/01 03:39:09;;;;;;;53.38;48.85;;;;;;;0.01;100.00;101206.44;5048779;28;20102;-80
2023/02/01 03:41:51;;;;;;;53.05;48.45;;;;;;;-0.05;100.00;101199.91;5047725;28;20041;-80
2023/02/01 03:44:28;;;;;;;51.53;47.58;;;;;;;-0.25;100.00;101204.13;5054660;28;20052;-80
2023/02/01 03:47:07;;;;;;;54.13;49.95;;;;;;;0.37;100.00;101197.34;5059645;28;20098;-80
2023/02/01 03:49:37;;;;;;;51.60;47.85;;;;;;;0.16;100.00;101197.34;5062558;28;20048;-80
2023/02/01 03:52:15;;;;;;;56.47;51.55;;;;;;;-0.18;100.00;101195.81;5054388;28;20053;-80
2023/02/01 03:54:46;;;;;;;55.25;50.65;;;;;;;-0.14;100.00;101194.63;5058223;28;20044;-80
2023/02/01 03:57:22;;;;;;;50.72;46.72;;;;;;;0.02;100.00;101194.19;5053811;28;20449;-80
2023/02/01 03:59:51;;;;;;;51.80;47.70;;;;;;;-0.12;100.00;101180.50;5055954;28;20111;-81
2023/02/01 04:02:19;;;;;;;50.72;46.22;;;;;;;-0.16;100.00;101181.69;5057824;28;20134;-80
2023/02/01 04:04:47;;;;;;;52.15;47.92;;;;;;;-0.20;100.00;101177.66;5053961;28;20103;-80
2023/02/01 04:07:17;;;;;;;51.75;47.42;;;;;;;-0.13;100.00;101191.06;5051870;28;20099;-80
2023/02/01 04:09:47;;;;;;;50.78;46.75;;;;;;;-0.16;100.00;101196.53;5055531;28;20076;-80
2023/02/01 04:12:16;;;;;;;52.30;48.10;;;;;;;-0.31;100.00;101198.59;5053646;28;20510;-80
2023/02/01 04:14:44;;;;;;;54.85;50.33;;;;;;;-0.19;100.00;101205.44;5056769;28;20047;-80
2023/02/01 04:17:13;;;;;;;52.90;48.67;;;;;;;-0.18;100.00;101196.66;5053904;28;20102;-80
2023/02/01 04:19:41;;;;;;;46.75;43.63;;;;;;;-0.15;100.00;101193.81;5059050;28;20079;-80
2023/02/01 04:22:12;;;;;;;52.75;49.05;;;;;;;0.07;100.00;101198.09;5050305;28;20044;-80
2023/02/01 04:24:42;;;;;;;55.17;51.08;;;;;;;-0.11;100.00;101197.81;5052897;28;20508;-80
2023/02/01 04:27:10;;;;;;;54.40;50.38;;;;;;;0.41;100.00;101205.75;5045641;28;20087;-80
2023/02/01 04:29:44;;;;;;;55.20;51.40;;;;;;;0.08;100.00;101202.34;5056337;28;20036;-80
2023/02/01 04:32:12;;;;;;;51.58;47.67;;;;;;;-0.08;100.00;101199.34;5041713;28;20053;-80
2023/02/01 04:34:39;;;;;;;50.45;46.70;;;;;;;0.01;100.00;101203.81;5050538;28;20049;-81
2023/02/01 04:37:08;;;;;;;50.95;47.03;;;;;;;0.08;100.00;101201.53;5040427;28;20053;-80
2023/02/01 04:39:36;;;;;;;52.92;48.97;;;;;;;-0.04;100.00;101198.97;5049503;28;20045;-80
2023/02/01 04:42:07;;;;;;;52.80;49.13;;;;;;;0.26;100.00;101188.75;5055914;28;20048;-80
2023/02/01 04:44:39;;;;;;;50.83;47.33;;;;;;;0.25;100.00;101190.53;5056112;28;20430;-80
2023/02/01 04:47:09;;;;;;;52.50;48.70;;;;;;;0.14;100.00;101201.03;5049847;28;20057;-80
2023/02/01 04:49:36;;;;;;;51.67;47.67;;;;;;;-0.01;100.00;101197.88;5052864;28;20570;-80
2023/02/01 04:52:06;;;;;;;51.25;47.75;;;;;;;0.45;100.00;101186.22;5047460;28;20494;-80
2023/02/01 04:54:36;;;;;;;50.85;47.17;;;;;;;-0.04;100.00;101191.13;5051785;28;20103;-80
2023/02/01 04:57:04;;;;;;;52.83;48.90;;;;;;;0.74;100.00;101189.00;5047989;28;20041;-80
2023/02/01 04:59:33;;;;;;;52.90;48.70;;;;;;;0.18;100.00;101192.81;5022030;28;20115;-82
2023/02/01 05:02:00;;;;;;;50.25;46.55;;;;;;;0.03;100.00;101185.41;5042292;28;20408;-81
2023/02/01 05:04:28;;;;;;;52.72;48.58;;;;;;;0.31;100.00;101190.00;5024824;28;20419;-81
2023/02/01 05:06:55;;;;;;;52.00;48.13;;;;;;;-0.20;100.00;101190.72;5023036;28;20485;-80
2023/02/01 05:09:22;;;;;;;52.80;48.90;;;;;;;-0.27;100.00;101195.63;5027937;28;20057;-80
2023/02/01 05:14:34;;;;;;;67.53;62.30;;;;;;;-0.05;100.00;101192.09;5028812;28;20052;-81
2023/02/01 05:17:01;;;;;;;66.93;62.08;;;;;;;-0.19;100.00;101183.72;5030587;28;20049;-80
2023/02/01 05:19:30;;;;;;;49.58;45.47;;;;;;;0.51;100.00;101187.50;5032769;28;20474;-80
2023/02/01 05:21:58;;;;;;;50.05;46.17;;;;;;;-0.02;100.00;101186.63;5031399;28;20045;-80
2023/02/01 05:24:26;;;;;;;49.17;45.58;;;;;;;-0.08;100.00;101194.94;5031110;28;20052;-80
2023/02/01 05:26:56;;;;;;;51.63;47.13;;;;;;;0.90;100.00;101193.75;5025943;28;20119;-80
2023/02/01 05:29:22;;;;;;;52.88;49.15;;;;;;;-0.12;100.00;101203.13;5026102;28;20132;-81
2023/02/01 05:31:51;;;;;;;49.38;45.72;;;;;;;-0.26;100.00;101204.28;5028375;28;20045;-80
2023/02/01 05:34:38;;;;;;;48.15;44.35;;;;;;;0.02;100.00;101208.09;5029543;28;20053;-81
2023/02/01 05:37:06;;;;;;;52.33;48.15;;;;;;;0.07;100.00;101205.09;5030611;28;20099;-80
2023/02/01 05:39:33;;;;;;;52.78;48.65;;;;;;;0.02;100.00;101197.63;5028544;28;20096;-80
2023/02/01 05:42:01;;;;;;;55.60;51.03;;;;;;;0.08;100.00;101199.75;5029460;28;20095;-80
2023/02/01 05:44:29;;;;;;;52.35;48.53;;;;;;;0.54;100.00;101201.16;5029395;28;20107;-80
2023/02/01 05:46:59;;;;;;;50.58;47.15;;;;;;;0.69;100.00;101196.41;5029622;28;20095;-80
2023/02/01 05:49:29;;;;;;;54.00;49.70;;;;;;;0.05;100.00;101196.56;5027197;28;20445;-80
2023/02/01 05:52:02;;;;;;;52.72;49.03;;;;;;;0.21;100.00;101200.41;5032676;28;20060;-80
2023/02/01 05:57:12;;;;;;;51.10;47.10;;;;;;;-0.24;100.00;101211.03;5137092;27;20384;-80
2023/02/01 05:59:44;;;;;;;50.33;46.57;;;;;;;-0.02;100.00;101209.28;5090771;28;20102;-80
2023/02/01 06:02:12;;;;;;;51.30;47.67;;;;;;;0.06;100.00;101208.66;5093567;28;20306;-80
2023/02/01 06:04:40;;;;;;;53.83;49.88;;;;;;;0.30;100.00;101214.47;5086159;28;20105;-80
2023/02/01 06:07:10;;;;;;;50.08;46.42;;;;;;;0.42;100.00;101210.00;5096210;28;20100;-81
2023/02/01 06:09:41;;;;;;;51.13;47.38;;;;;;;-0.01;100.00;101211.75;5105177;28;20451;-80
2023/02/01 06:12:13;;;;;;;52.10;48.15;;;;;;;0.09;100.00;101203.19;5096126;28;20526;-80
2023/02/01 06:14:40;;;;;;;51.47;47.58;;;;;;;0.17;100.00;101209.44;5088466;28;20044;-80
2023/02/01 06:17:09;;;;;;;54.63;49.55;;;;;;;0.59;100.00;101217.28;5088508;28;20118;-80
2023/02/01 06:19:37;;;;;;;52.10;48.20;;;;;;;0.29;100.00;101214.63;5089162;28;20425;-80
2023/02/01 06:22:06;;;;;;;52.55;48.65;;;;;;;1.01;100.00;101208.53;5088859;28;20098;-80
2023/02/01 06:24:33;;;;;;;51.15;47.75;;;;;;;0.42;100.00;101210.88;5088516;28;20436;-80
2023/02/01 06:29:42;;;;;;;52.38;48.35;;;;;;;0.73;100.00;101217.91;5085271;28;20055;-80
2023/02/01 06:32:10;;;;;;;56.80;52.30;;;;;;;0.93;100.00;101216.22;5089656;28;20045;-80
2023/02/01 06:34:37;;;;;;;56.55;52.17;;;;;;;1.08;100.00;101210.50;5094641;28;20104;-81
2023/02/01 06:37:04;;;;;;;55.22;51.13;;;;;;;0.93;100.00;101218.81;5090722;28;20079;-80
2023/02/01 06:39:32;;;;;;;55.25;51.63;;;;;;;1.20;100.00;101221.69;5089773;28;20048;-80
2023/02/01 06:42:03;;;;;;;55.53;51.80;;;;;;;0.94;100.00;101223.09;5092336;28;20052;-80
2023/02/01 06:44:30;;;;;;;56.90;53.05;;;;;;;1.34;100.00;101225.75;5097523;28;20052;-80
2023/02/01 06:47:00;;;;;;;61.53;57.28;;;;;;;1.69;100.00;101238.34;5088385;28;20575;-81
2023/02/01 06:49:28;;;;;;;59.28;55.42;;;;;;;1.29;100.00;101241.81;5088832;28;20052;-80
2023/02/01 06:51:56;;;;;;;60.88;56.63;;;;;;;2.32;100.00;101245.00;5102413;28;20128;-80
2023/02/01 06:54:23;;;;;;;55.72;51.70;;;;;;;1.36;100.00;101236.88;5090358;28;20060;-80
2023/02/01 06:56:50;;;;;;;54.47;50.85;;;;;;;1.43;100.00;101242.44;5088304;28;20056;-80
2023/02/01 06:59:17;;;;;;;59.42;55.30;;;;;;;1.59;100.00;101243.56;5081185;28;20452;-80
2023/02/01 07:01:44;;;;;;;58.75;54.47;;;;;;;1.54;100.00;101239.69;5087591;28;20105;-80
2023/02/01 07:04:12;;;;;;;55.17;51.38;;;;;;;1.57;100.00;101229.81;5091532;28;20053;-80
2023/02/01 07:06:43;;;;;;;58.42;54.42;;;;;;;1.67;100.00;101242.91;5095980;28;20514;-80
2023/02/01 07:09:12;;;;;;;56.70;52.80;;;;;;;1.65;100.00;101238.75;5078758;28;20110;-80
2023/02/01 07:11:42;;;;;;;58.85;54.78;;;;;;;2.23;100.00;101242.25;5076171;28;20044;-80
2023/02/01 07:14:11;;;;;;;57.13;53.10;;;;;;;2.24;100.00;101235.19;5084293;28;20135;-80
2023/02/01 07:16:38;;;;;;;59.67;55.67;;;;;;;2.66;100.00;101235.72;5072145;28;20040;-80
2023/02/01 07:19:07;;;;;;;58.03;54.22;;;;;;;2.16;100.00;101235.09;5060640;28;20048;-80
2023/02/01 07:21:37;;;;;;;57.65;53.60;;;;;;;2.50;100.00;101243.34;5090148;28;20055;-80
2023/02/01 07:24:04;;;;;;;52.80;49.30;;;;;;;2.02;100.00;101238.94;5072435;28;20113;-80
2023/02/01 07:26:31;;;;;;;55.47;51.78;;;;;;;2.17;100.00;101248.03;5071001;28;20037;-80
2023/02/01 07:28:59;;;;;;;57.13;52.90;;;;;;;2.57;100.00;101257.53;5077178;28;20059;-80
2023/02/01 07:31:28;;;;;;;53.70;49.80;;;;;;;2.78;100.00;101249.47;5083103;28;20048;-80
2023/02/01 07:33:58;;;;;;;49.80;46.50;;;;;;;1.94;100.00;101244.06;5075555;28;20138;-80
2023/02/01 07:36:24;;;;;;;54.08;50.47;;;;;;;3.04;100.00;101238.38;5074268;28;20040;-80
2023/02/01 07:38:52;;;;;;;53.65;50.20;;;;;;;2.54;100.00;101244.69;5072660;28;20049;-80
2023/02/01 07:41:19;;;;;;;56.22;52.83;;;;;;;3.02;100.00;101238.50;5074990;28;20048;-80
2023/02/01 07:43:46;;;;;;;51.92;48.70;;;;;;;3.10;100.00;101240.41;5073144;28;20471;-81
2023/02/01 07:46:15;;;;;;;55.13;51.22;;;;;;;2.79;100.00;101224.91;5076832;28;20578;-82
2023/02/01 07:48:41;;;;;;;55.25;51.47;;;;;;;2.78;100.00;101239.00;5073839;28;20056;-81
2023/02/01 07:51:11;;;;;;;52.08;48.75;;;;;;;3.35;100.00;101231.03;5077668;28;20102;-80
2023/02/01 07:53:39;;;;;;;52.50;49.10;;;;;;;3.53;100.00;101216.16;5068125;28;20498;-80
2023/02/01 07:56:12;;;;;;;51.13;47.58;;;;;;;2.94;100.00;101223.50;5069990;28;20056;-81
2023/02/01 07:58:39;;;;;;;53.80;50.22;;;;;;;2.64;100.00;101245.53;5071598;28;20585;-80
2023/02/01 08:01:21;;;;;;;52.42;49.00;;;;;;;3.15;100.00;101238.19;5074748;28;20109;-80
2023/02/01 08:03:48;;;;;;;51.40;47.93;;;;;;;2.63;100.00;101249.13;5075566;28;20052;-81
2023/02/01 08:06:15;;;;;;;49.38;46.38;;;;;;;2.96;100.00;101247.75;5079810;28;20733;-81
2023/02/01 08:08:42;;;;;;;52.35;49.03;;;;;;;4.22;100.00;101243.59;5079970;28;20086;-80
2023/02/01 08:11:10;;;;;;;51.95;48.30;;;;;;;4.22;100.00;101248.84;5075978;28;20056;-81
2023/02/01 08:13:37;;;;;;;49.85;46.75;;;;;;;3.75;100.00;101249.06;5078630;28;20060;-81
2023/02/01 08:16:05;;;;;;;48.80;45.50;;;;;;;3.71;100.00;101241.63;5076523;28;20105;-80
2023/02/01 08:18:32;;;;;;;47.33;44.33;;;;;;;4.32;100.00;101238.25;5073036;28;20101;-81
2023/02/01 08:21:04;;;;;;;47.47;44.35;;;;;;;3.83;100.00;101225.50;5077685;28;20051;-80
2023/02/01 08:23:31;;;;;;;49.30;46.10;;;;;;;3.98;100.00;101228.44;5077230;28;20509;-80
2023/02/01 08:26:05;;;;;;;50.17;46.67;;;;;;;4.45;100.00;101215.03;5080701;28;20047;-81
2023/02/01 08:28:34;;;;;;;50.50;46.80;;;;;;;5.49;100.00;101225.41;5077649;28;20546;-81
2023/02/01 08:31:05;;;;;;;51.80;48.40;;;;;;;4.68;100.00;101225.03;5075825;28;20098;-80
2023/02/01 08:33:32;;;;;;;53.42;49.45;;;;;;;4.89;100.00;101220.22;5074376;28;20101;-80
2023/02/01 08:36:02;;;;;;;54.50;50.90;;;;;;;6.88;100.00;101228.09;5076099;28;20108;-81
2023/02/01 08:38:28;;;;;;;53.97;50.33;;;;;;;5.41;100.00;101219.28;5078358;28;20208;-81
2023/02/01 08:40:55;;;;;;;50.40;47.17;;;;;;;4.11;100.00;101233.28;5072099;28;20505;-81
2023/02/01 08:43:22;;;;;;;50.88;47.83;;;;;;;4.98;100.00;101229.81;5079236;28;20048;-81
2023/02/01 08:45:50;;;;;;;51.22;47.90;;;;;;;4.85;100.00;101220.69;5074748;28;20050;-81
2023/02/01 08:48:17;;;;;;;47.47;44.65;;;;;;;5.01;100.00;101220.78;5076861;28;20399;-81
2023/02/01 08:50:44;;;;;;;50.38;47.13;;;;;;;5.07;100.00;101233.31;5074445;28;20052;-81
2023/02/01 08:53:13;;;;;;;51.33;47.72;;;;;;;3.81;100.00;101229.22;5075674;28;20563;-81
2023/02/01 08:55:40;;;;;;;49.95;46.75;;;;;;;4.90;100.00;101227.16;5073406;28;20074;-80
2023/02/01 08:58:06;;;;;;;49.95;46.65;;;;;;;5.02;100.00;101223.25;5078720;28;20113;-81
2023/02/01 09:00:33;;;;;;;50.05;46.78;;;;;;;4.86;100.00;101222.34;5075625;28;20110;-81
2023/02/01 09:03:01;;;;;;;48.50;45.33;;;;;;;4.69;100.00;101219.63;5074984;28;20107;-81
2023/02/01 09:05:28;;;;;;;48.95;45.75;;;;;;;5.64;100.00;101215.06;5075453;28;20052;-81
2023/02/01 09:07:55;;;;;;;50.40;47.10;;;;;;;5.07;100.00;101212.25;5082030;28;20040;-80
2023/02/01 09:10:22;;;;;;;50.17;46.75;;;;;;;4.96;100.00;101215.13;5077466;28;20125;-81
2023/02/01 09:12:48;;;;;;;51.00;47.65;;;;;;;5.26;100.00;101221.69;5077895;28;20052;-80
2023/02/01 09:15:15;;;;;;;51.25;47.83;;;;;;;4.94;100.00;101203.97;5077716;28;20466;-81
2023/02/01 09:17:43;;;;;;;50.38;47.05;;;;;;;5.43;100.00;101209.41;5073132;28;20098;-81
2023/02/01 09:20:12;;;;;;;53.00;49.13;;;;;;;5.65;100.00;101208.81;5075956;28;20072;-81
2023/02/01 09:22:40;;;;;;;51.47;48.33;;;;;;;6.07;100.00;101197.34;5074404;28;20052;-81
2023/02/01 09:25:08;;;;;;;50.42;47.30;;;;;;;4.98;100.00;101194.75;5074078;28;20052;-81
2023/02/01 09:27:35;;;;;;;49.00;46.00;;;;;;;5.88;100.00;101193.19;5075157;28;20040;-81
2023/02/01 09:30:02;;;;;;;46.72;43.80;;;;;;;5.37;100.00;101194.25;5081238;28;20048;-81
2023/02/01 09:32:28;;;;;;;47.25;44.50;;;;;;;5.71;100.00;101184.44;5073377;28;20517;-81
2023/02/01 09:34:55;;;;;;;49.95;46.55;;;;;;;5.77;100.00;101187.41;5072077;28;20044;-81
2023/02/01 09:37:23;;;;;;;48.22;45.00;;;;;;;5.80;100.00;101184.47;5074502;28;20539;-81
2023/02/01 09:39:50;;;;;;;48.28;45.22;;;;;;;6.22;100.00;101181.69;5066820;28;20115;-81
2023/02/01 09:42:45;;;;;;;48.40;45.50;;;;;;;5.35;100.00;101169.88;5045025;28;20107;-81
2023/02/01 09:45:22;;;;;;;50.25;46.75;;;;;;;4.74;100.00;101164.69;5039432;28;20050;-80
2023/02/01 09:47:54;;;;;;;51.85;48.65;;;;;;;6.51;100.00;101169.81;5042613;28;20048;-81
2023/02/01 09:50:26;;;;;;;48.65;45.53;;;;;;;5.60;100.00;101168.97;5038060;28;20045;-81
2023/02/01 09:53:00;;;;;;;50.33;46.97;;;;;;;5.94;100.00;101173.31;5045782;28;20556;-81
2023/02/01 09:55:34;;;;;;;48.60;45.67;;;;;;;5.79;100.00;101178.38;5041101;28;20522;-81
2023/02/01 09:58:04;;;;;;;49.60;46.40;;;;;;;5.55;100.00;101181.78;5038986;28;20411;-81
2023/02/01 10:00:35;;;;;;;49.63;46.70;;;;;;;6.36;100.00;101169.66;5042811;28;20045;-81
2023/02/01 10:03:03;;;;;;;49.33;46.28;;;;;;;7.46;100.00;101167.09;5039828;28;20049;-81
2023/02/01 10:05:59;;;;;;;48.97;45.55;;;;;;;7.03;100.00;101161.38;5045904;28;20175;-81
2023/02/01 10:08:40;;;;;;;48.67;45.60;;;;;;;5.64;100.00;101172.91;5039593;28;20056;-81
2023/02/01 10:11:28;;;;;;;49.15;45.97;;;;;;;5.78;100.00;101160.91;5040308;28;20126;-80
2023/02/01 10:14:02;;;;;;;52.95;49.72;;;;;;;6.32;100.00;101152.50;5042958;28;20052;-81
2023/02/01 10:16:40;;;;;;;50.50;47.20;;;;;;;5.35;100.00;101151.44;5037575;28;20056;-81
2023/02/01 10:19:28;;;;;;;51.88;48.40;;;;;;;5.42;100.00;101140.09;5039052;28;20068;-81
2023/02/01 10:21:59;;;;;;;51.72;48.35;;;;;;;5.84;100.00;101144.44;5043326;28;20049;-81
2023/02/01 10:24:40;;;;;;;50.70;47.60;;;;;;;5.60;100.00;101133.84;5049053;28;20053;-81
2023/02/01 10:27:15;;;;;;;49.25;46.17;;;;;;;6.47;100.00;101136.81;5041963;28;20055;-81
2023/02/01 10:29:45;;;;;;;48.17;45.15;;;;;;;6.23;100.00;101132.41;5037703;28;20576;-81
2023/02/01 10:32:15;;;;;;;49.38;46.28;;;;;;;5.60;100.00;101125.94;5043267;28;20053;-81
2023/02/01 10:34:43;;;;;;;52.70;49.17;;;;;;;5.91;100.00;101126.16;5031564;28;20049;-81
2023/02/01 10:37:21;;;;;;;51.92;48.72;;;;;;;5.52;100.00;101124.13;5040033;28;20046;-80
2023/02/01 10:39:50;;;;;;;51.13;48.08;;;;;;;6.17;100.00;101115.41;5043686;28;20072;-81
2023/02/01 10:42:20;;;;;;;50.78;47.67;;;;;;;6.22;100.00;101118.38;5045366;28;20044;-81
2023/02/01 10:44:48;;;;;;;52.92;49.45;;;;;;;6.12;100.00;101096.66;5051583;28;20094;-83
2023/02/01 10:47:15;;;;;;;50.67;47.40;;;;;;;5.64;100.00;101109.66;5047488;28;20408;-81
2023/02/01 10:49:48;;;;;;;53.05;49.55;;;;;;;6.59;100.00;101104.59;5053642;28;20135;-81
2023/02/01 10:52:18;;;;;;;51.78;48.53;;;;;;;7.75;100.00;101095.03;5052295;28;20045;-82
2023/02/01 10:54:45;;;;;;;55.70;51.45;;;;;;;7.31;100.00;101096.50;5043229;28;20481;-81
2023/02/01 10:57:23;;;;;;;52.50;48.75;;;;;;;6.86;100.00;101091.97;5050033;28;20058;-81
2023/02/01 10:59:50;;;;;;;52.70;49.20;;;;;;;7.07;100.00;101096.66;5045459;28;20056;-82
2023/02/01 11:02:31;;;;;;;69.25;63.75;;;;;;;7.35;100.00;101089.03;5048319;28;20049;-82
2023/02/01 11:05:03;;;;;;;50.95;47.85;;;;;;;6.55;100.00;101081.38;5049884;28;20095;-82
2023/02/01 11:07:30;;;;;;;53.08;49.65;;;;;;;6.48;100.00;101080.41;5046887;28;20107;-81
2023/02/01 11:09:58;;;;;;;52.22;49.10;;;;;;;7.53;100.00;101073.72;5046445;28;20128;-81
2023/02/01 11:12:30;;;;;;;54.67;51.35;;;;;;;7.44;100.00;101071.31;5045152;28;20048;-82
2023/02/01 11:15:18;;;;;;;52.70;49.58;;;;;;;6.84;100.00;101064.94;5044575;28;20057;-82
2023/02/01 11:17:47;;;;;;;54.10;50.92;;;;;;;6.26;100.00;101061.66;5046799;28;20107;-81
2023/02/01 11:20:16;;;;;;;49.85;46.58;;;;;;;6.34;100.00;101059.00;5045542;28;20053;-81
2023/02/01 11:22:48;;;;;;;49.80;46.42;;;;;;;6.25;100.00;101043.38;5041032;28;20053;-81
2023/02/01 11:25:17;;;;;;;50.17;46.97;;;;;;;6.13;100.00;101043.72;5045024;28;20470;-81
2023/02/01 11:27:46;;;;;;;50.08;47.08;;;;;;;6.11;100.00;101043.09;5045164;28;20308;-82
2023/02/01 11:30:18;;;;;;;53.58;50.20;;;;;;;6.10;100.00;101038.78;5040232;28;20079;-81
2023/02/01 11:32:46;;;;;;;;;;;;;;;5.94;100.00;101047.56;5046895;28;20045;-81
2023/02/01 11:35:18;;;;;;;52.45;49.20;;;;;;;5.79;100.00;101035.22;5044114;28;19929;-81
2023/02/01 11:37:58;;;;;;;48.60;45.70;;;;;;;5.89;100.00;101027.94;5033407;28;20041;-81
2023/02/01 11:40:29;;;;;;;49.28;46.25;;;;;;;5.65;100.00;101034.88;5038294;28;20461;-82
2023/02/01 11:43:04;;;;;;;56.78;52.95;;;;;;;5.99;100.00;101019.84;5040651;28;20049;-81
2023/02/01 11:45:33;;;;;;;50.10;47.13;;;;;;;6.93;100.00;101015.50;5049849;28;20484;-81
2023/02/01 11:48:00;;;;;;;47.90;45.13;;;;;;;6.46;100.00;101019.06;5053098;28;20422;-81
2023/02/01 11:50:35;;;;;;;50.65;47.33;;;;;;;6.96;100.00;101015.16;5039358;28;20061;-82
2023/02/01 11:53:26;;;;;;;51.60;48.28;;;;;;;8.04;100.00;101014.91;5050707;28;20045;-82
2023/02/01 11:56:18;;;;;;;51.13;48.15;;;;;;;7.18;100.00;101013.53;5040760;28;20541;-81
2023/02/01 11:59:15;;;;;;;49.45;46.35;;;;;;;6.35;100.00;101021.06;5037792;28;20045;-81
2023/02/01 12:01:58;;;;;;;53.08;49.75;;;;;;;7.44;100.00;101013.97;5045959;28;20049;-81
2023/02/01 12:05:00;;;;;;;49.55;46.60;;;;;;;7.08;100.00;101011.97;5045600;28;20045;-83
2023/02/01 12:07:40;;;;;;;49.13;46.10;;;;;;;7.66;100.00;101003.56;5035484;28;20119;-82